createdAt,value
2022-11-22T00:01:21.714Z,5.82
2022-11-22T00:03:50.227Z,5.80
2022-11-22T00:06:18.573Z,5.77
2022-11-22T00:08:47.053Z,5.73
2022-11-22T00:11:15.572Z,5.76
2022-11-22T00:13:44.043Z,5.74
2022-11-22T00:16:13.844Z,5.75
2022-11-22T00:18:42.210Z,5.77
2022-11-22T00:21:11.198Z,5.78
2022-11-22T00:23:39.517Z,5.80
2022-11-22T00:26:11.939Z,5.82
2022-11-22T00:28:40.752Z,5.85
2022-11-22T00:31:09.002Z,5.84
2022-11-22T00:33:38.825Z,5.81
2022-11-22T00:36:07.664Z,5.84
2022-11-22T00:38:36.097Z,5.81
2022-11-22T00:41:04.719Z,5.76
2022-11-22T00:43:33.205Z,5.80
2022-11-22T00:46:01.970Z,5.74
2022-11-22T00:48:30.583Z,5.72
2022-11-22T00:51:00.316Z,5.67
2022-11-22T00:53:28.763Z,5.64
2022-11-22T00:55:57.045Z,5.58
2022-11-22T00:58:25.450Z,5.57
2022-11-22T01:00:56.844Z,5.57
2022-11-22T01:03:25.857Z,5.51
2022-11-22T01:05:54.299Z,5.58
2022-11-22T01:08:24.099Z,5.55
2022-11-22T01:10:57.726Z,5.56
2022-11-22T01:13:26.866Z,5.59
2022-11-22T01:15:56.881Z,5.61
2022-11-22T01:18:25.227Z,5.61
2022-11-22T01:20:53.720Z,5.59
2022-11-22T01:23:23.338Z,5.61
2022-11-22T01:25:52.045Z,5.53
2022-11-22T01:28:20.487Z,5.57
2022-11-22T01:30:51.627Z,5.61
2022-11-22T01:33:20.559Z,5.61
2022-11-22T01:35:49.044Z,5.55
2022-11-22T01:38:17.584Z,5.62
2022-11-22T01:40:47.389Z,5.66
2022-11-22T01:43:20.291Z,5.73
2022-11-22T01:45:52.364Z,5.71
2022-11-22T01:48:35.358Z,5.66
2022-11-22T01:51:08.587Z,5.67
2022-11-22T01:53:40.352Z,5.71
2022-11-22T01:56:14.536Z,5.68
2022-11-22T01:58:46.042Z,5.70
2022-11-22T02:01:14.507Z,5.71
2022-11-22T02:03:46.434Z,5.72
2022-11-22T02:06:15.680Z,5.69
2022-11-22T02:08:53.857Z,5.70
2022-11-22T02:11:24.266Z,5.74
2022-11-22T02:13:53.705Z,5.74
2022-11-22T02:16:22.200Z,5.77
2022-11-22T02:18:50.725Z,5.77
2022-11-22T02:21:19.199Z,5.78
2022-11-22T02:23:57.037Z,5.81
2022-11-22T02:26:29.667Z,5.88
2022-11-22T02:29:04.701Z,5.85
2022-11-22T02:31:40.543Z,5.91
2022-11-22T02:34:09.655Z,5.92
2022-11-22T02:36:44.293Z,6.00
2022-11-22T02:39:16.171Z,5.92
2022-11-22T02:41:46.272Z,5.93
2022-11-22T02:44:15.800Z,5.94
2022-11-22T02:46:52.750Z,5.89
2022-11-22T02:49:23.730Z,5.91
2022-11-22T02:51:53.388Z,5.88
2022-11-22T02:54:22.117Z,5.85
2022-11-22T02:56:52.092Z,5.90
2022-11-22T02:59:20.535Z,5.97
2022-11-22T03:01:48.956Z,5.89
2022-11-22T03:04:25.536Z,5.86
2022-11-22T03:06:56.135Z,5.85
2022-11-22T03:09:25.385Z,5.84
2022-11-22T03:11:55.722Z,5.79
2022-11-22T03:14:24.640Z,5.86
2022-11-22T03:16:53.100Z,5.79
2022-11-22T03:19:21.531Z,5.78
2022-11-22T03:21:49.929Z,5.80
2022-11-22T03:24:19.999Z,5.72
2022-11-22T03:26:49.602Z,5.70
2022-11-22T03:29:19.721Z,5.70
2022-11-22T03:31:48.001Z,5.70
2022-11-22T03:34:17.297Z,5.63
2022-11-22T03:36:45.945Z,5.64
2022-11-22T03:39:14.582Z,5.70
2022-11-22T03:41:43.006Z,5.67
2022-11-22T03:44:11.386Z,5.70
2022-11-22T03:46:41.289Z,5.68
2022-11-22T03:49:09.627Z,5.69
2022-11-22T03:51:38.043Z,5.71
2022-11-22T03:54:06.609Z,5.71
2022-11-22T03:56:35.079Z,5.73
2022-11-22T03:59:03.400Z,5.72
2022-11-22T04:01:31.677Z,5.70
2022-11-22T04:04:01.521Z,5.70
2022-11-22T04:06:29.829Z,5.70
2022-11-22T04:08:58.153Z,5.71
2022-11-22T04:11:26.509Z,5.69
2022-11-22T04:14:12.275Z,5.69
2022-11-22T04:16:40.753Z,5.70
2022-11-22T04:19:10.664Z,5.71
2022-11-22T04:21:38.329Z,5.65
2022-11-22T04:24:27.431Z,5.67
2022-11-22T04:26:56.974Z,5.62
2022-11-22T04:29:25.805Z,5.59
2022-11-22T04:32:11.754Z,5.58
2022-11-22T04:34:41.494Z,5.53
2022-11-22T04:37:09.804Z,5.54
2022-11-22T04:39:38.178Z,5.50
2022-11-22T04:42:24.697Z,5.52
2022-11-22T04:44:53.101Z,5.54
2022-11-22T04:47:39.105Z,5.53
2022-11-22T04:50:24.292Z,5.51
2022-11-22T04:52:55.991Z,5.47
2022-11-22T04:55:24.948Z,5.45
2022-11-22T04:57:59.120Z,5.40
2022-11-22T05:00:29.196Z,5.44
2022-11-22T05:02:58.218Z,5.44
2022-11-22T05:05:28.370Z,5.46
2022-11-22T05:07:57.488Z,5.46
2022-11-22T05:10:27.042Z,5.46
2022-11-22T05:12:56.217Z,5.45
2022-11-22T05:15:24.615Z,5.46
2022-11-22T05:17:53.262Z,5.44
2022-11-22T05:20:21.621Z,5.52
2022-11-22T05:23:08.735Z,5.47
2022-11-22T05:25:37.241Z,5.45
2022-11-22T05:28:05.887Z,5.47
2022-11-22T05:30:34.239Z,5.47
2022-11-22T05:33:02.572Z,5.48
2022-11-22T05:35:31.035Z,5.47
2022-11-22T05:38:01.255Z,5.37
2022-11-22T05:40:29.588Z,5.36
2022-11-22T05:42:59.161Z,5.35
2022-11-22T05:45:27.869Z,5.36
2022-11-22T05:47:57.343Z,5.38
2022-11-22T05:50:25.694Z,5.36
2022-11-22T05:53:04.095Z,5.33
2022-11-22T05:55:32.633Z,5.34
2022-11-22T05:58:02.115Z,5.36
2022-11-22T06:00:30.739Z,5.38
2022-11-22T06:03:02.489Z,5.36
2022-11-22T06:05:31.633Z,5.36
2022-11-22T06:08:02.640Z,5.36
2022-11-22T06:10:34.478Z,5.35
2022-11-22T06:13:02.843Z,5.37
2022-11-22T06:15:31.659Z,5.37
2022-11-22T06:18:00.089Z,5.37
2022-11-22T06:20:28.647Z,5.37
2022-11-22T06:22:59.411Z,5.37
2022-11-22T06:25:28.650Z,5.38
2022-11-22T06:28:01.314Z,5.39
2022-11-22T06:30:29.722Z,5.37
2022-11-22T06:32:58.978Z,5.36
2022-11-22T06:35:27.698Z,5.38
2022-11-22T06:38:00.487Z,5.37
2022-11-22T06:40:29.272Z,5.37
2022-11-22T06:42:57.646Z,5.36
2022-11-22T06:45:27.320Z,5.36
2022-11-22T06:47:56.140Z,5.36
2022-11-22T06:50:24.424Z,5.37
2022-11-22T06:52:53.138Z,5.38
2022-11-22T06:55:49.072Z,5.42
2022-11-22T06:58:09.904Z,5.40
2022-11-22T07:00:39.679Z,5.44
2022-11-22T07:03:08.132Z,5.44
2022-11-22T07:05:36.515Z,5.43
2022-11-22T07:08:12.037Z,5.42
2022-11-22T07:10:41.935Z,5.41
2022-11-22T07:13:10.504Z,5.46
2022-11-22T07:15:40.242Z,5.48
2022-11-22T07:18:08.539Z,5.44
2022-11-22T07:20:37.120Z,5.40
2022-11-22T07:23:05.588Z,5.41
2022-11-22T07:25:33.991Z,5.41
2022-11-22T07:28:02.354Z,5.37
2022-11-22T07:30:30.731Z,5.35
2022-11-22T07:33:00.643Z,5.35
2022-11-22T07:35:30.278Z,5.36
2022-11-22T07:37:58.683Z,5.34
2022-11-22T07:40:27.004Z,5.34
2022-11-22T07:42:58.457Z,5.36
2022-11-22T07:45:27.273Z,5.36
2022-11-22T07:47:55.708Z,5.41
2022-11-22T07:50:25.712Z,5.38
2022-11-22T07:52:57.613Z,5.37
2022-11-22T07:55:26.943Z,5.37
2022-11-22T07:57:55.604Z,5.39
2022-11-22T08:00:24.606Z,5.38
2022-11-22T08:02:53.161Z,5.35
2022-11-22T08:05:21.854Z,5.38
2022-11-22T08:07:54.466Z,5.38
2022-11-22T08:10:23.322Z,5.39
2022-11-22T08:12:51.980Z,5.40
2022-11-22T08:15:20.654Z,5.39
2022-11-22T08:17:49.189Z,5.41
2022-11-22T08:20:17.689Z,5.43
2022-11-22T08:22:46.146Z,5.46
2022-11-22T08:25:15.791Z,5.46
2022-11-22T08:27:45.213Z,5.44
2022-11-22T08:30:14.023Z,5.42
2022-11-22T08:32:42.794Z,5.47
2022-11-22T08:35:11.318Z,5.49
2022-11-22T08:37:39.690Z,5.55
2022-11-22T08:40:09.914Z,5.58
2022-11-22T08:42:39.619Z,5.60
2022-11-22T08:45:09.308Z,5.60
2022-11-22T08:47:37.756Z,5.63
2022-11-22T08:50:08.012Z,5.65
2022-11-22T08:52:36.539Z,5.69
2022-11-22T08:55:05.377Z,5.68
2022-11-22T08:57:33.778Z,5.71
2022-11-22T09:00:04.492Z,5.79
2022-11-22T09:02:32.935Z,5.82
2022-11-22T09:05:01.249Z,5.85
2022-11-22T09:10:18.613Z,5.86
2022-11-22T09:12:47.654Z,5.88
2022-11-22T09:15:17.671Z,5.89
2022-11-22T09:17:46.066Z,5.93
2022-11-22T09:20:14.482Z,5.91
2022-11-22T09:22:42.775Z,5.94
2022-11-22T09:25:11.725Z,5.98
2022-11-22T09:27:40.084Z,5.99
2022-11-22T09:30:10.084Z,6.01
2022-11-22T09:32:39.810Z,6.03
2022-11-22T09:35:09.019Z,6.06
2022-11-22T09:37:37.368Z,6.08
2022-11-22T09:40:07.250Z,6.09
2022-11-22T09:43:08.080Z,6.11
2022-11-22T09:46:00.652Z,6.14
2022-11-22T09:48:52.718Z,6.18
2022-11-22T09:51:25.211Z,6.23
2022-11-22T09:53:56.714Z,6.24
2022-11-22T09:56:28.369Z,6.28
2022-11-22T09:59:03.232Z,6.39
2022-11-22T10:01:41.089Z,6.42
2022-11-22T10:04:16.939Z,6.45
2022-11-22T10:06:51.601Z,6.52
2022-11-22T10:09:32.358Z,6.51
2022-11-22T10:12:04.954Z,6.55
2022-11-22T10:14:45.919Z,6.53
2022-11-22T10:17:29.776Z,6.59
2022-11-22T10:20:08.190Z,6.58
2022-11-22T10:22:36.665Z,6.57
2022-11-22T10:25:15.857Z,6.59
2022-11-22T10:27:45.385Z,6.57
2022-11-22T10:30:18.144Z,6.57
2022-11-22T10:32:58.749Z,6.61
2022-11-22T10:36:00.779Z,6.66
2022-11-22T10:39:07.573Z,6.61
2022-11-22T10:41:51.468Z,6.66
2022-11-22T10:44:34.470Z,6.69
2022-11-22T10:47:14.816Z,6.68
2022-11-22T10:49:56.965Z,6.69
2022-11-22T10:52:35.357Z,6.70
2022-11-22T10:55:22.975Z,6.76
2022-11-22T10:58:03.515Z,6.78
2022-11-22T11:00:34.407Z,6.83
2022-11-22T11:03:26.156Z,6.77
2022-11-22T11:06:21.548Z,6.81
2022-11-22T11:09:47.850Z,6.84
2022-11-22T11:11:45.226Z,6.81
2022-11-22T11:14:26.751Z,6.79
2022-11-22T11:16:55.837Z,6.81
2022-11-22T11:19:26.605Z,6.84
2022-11-22T11:22:03.224Z,6.79
2022-11-22T11:24:33.450Z,6.78
2022-11-22T11:27:02.379Z,6.88
2022-11-22T11:29:39.719Z,6.90
2022-11-22T11:32:11.775Z,6.95
2022-11-22T11:34:44.549Z,6.96
2022-11-22T11:37:27.874Z,6.92
2022-11-22T11:39:57.608Z,6.93
2022-11-22T11:42:30.257Z,6.95
2022-11-22T11:45:29.147Z,7.02
2022-11-22T11:47:57.995Z,7.05
2022-11-22T11:50:30.040Z,7.05
2022-11-22T11:53:05.253Z,7.09
2022-11-22T11:55:37.070Z,7.04
2022-11-22T11:58:18.925Z,7.13
2022-11-22T12:00:47.556Z,7.13
2022-11-22T12:03:20.472Z,7.16
2022-11-22T12:05:48.789Z,7.21
2022-11-22T12:08:31.081Z,7.21
2022-11-22T12:11:08.937Z,7.22
2022-11-22T12:14:12.304Z,7.23
2022-11-22T12:16:35.427Z,7.31
2022-11-22T12:19:23.186Z,7.33
2022-11-22T12:22:01.961Z,7.39
2022-11-22T12:24:56.949Z,7.44
2022-11-22T12:27:28.754Z,7.50
2022-11-22T12:29:59.138Z,7.55
2022-11-22T12:32:33.747Z,7.57
2022-11-22T12:35:06.751Z,7.65
2022-11-22T12:37:41.355Z,7.76
2022-11-22T12:40:18.874Z,7.78
2022-11-22T12:42:53.192Z,7.86
2022-11-22T12:45:29.555Z,7.92
2022-11-22T12:48:02.177Z,7.95
2022-11-22T12:50:38.793Z,8.04
2022-11-22T12:53:14.478Z,8.07
2022-11-22T12:55:49.329Z,8.15
2022-11-22T12:58:25.700Z,8.14
2022-11-22T13:01:08.623Z,8.14
2022-11-22T13:03:45.421Z,8.22
2022-11-22T13:06:15.371Z,8.31
2022-11-22T13:08:55.550Z,8.32
2022-11-22T13:11:32.677Z,8.41
2022-11-22T13:14:06.729Z,8.41
2022-11-22T13:16:35.514Z,8.50
2022-11-22T13:19:06.287Z,8.62
2022-11-22T13:21:48.114Z,8.71
2022-11-22T13:24:40.198Z,8.76
2022-11-22T13:27:18.951Z,8.77
2022-11-22T13:29:50.902Z,8.80
2022-11-22T13:32:24.062Z,8.79
2022-11-22T13:35:09.137Z,8.67
2022-11-22T13:37:42.885Z,8.68
2022-11-22T13:40:24.486Z,8.66
2022-11-22T13:43:32.860Z,8.60
2022-11-22T13:46:04.502Z,8.54
2022-11-22T13:49:15.258Z,8.43
2022-11-22T13:51:56.344Z,8.33
2022-11-22T13:55:25.387Z,8.30
2022-11-22T13:57:53.838Z,8.32
2022-11-22T14:00:42.869Z,8.29
2022-11-22T14:03:47.827Z,8.32
2022-11-22T14:06:27.411Z,8.33
2022-11-22T14:09:28.624Z,8.21
2022-11-22T14:12:23.000Z,8.17
2022-11-22T14:15:16.896Z,8.16
2022-11-22T14:18:00.584Z,8.11
2022-11-22T14:20:45.307Z,8.05
2022-11-22T14:23:25.975Z,7.98
2022-11-22T14:26:17.782Z,8.01
2022-11-22T14:29:39.939Z,8.03
2022-11-22T14:32:17.627Z,7.97
2022-11-22T14:35:29.301Z,7.91
2022-11-22T14:38:28.862Z,7.88
2022-11-22T14:41:46.502Z,7.89
2022-11-22T14:44:20.537Z,7.89
2022-11-22T14:46:54.861Z,7.84
2022-11-22T14:49:42.212Z,7.76
2022-11-22T14:52:22.904Z,7.79
2022-11-22T14:54:57.894Z,7.78
2022-11-22T14:57:27.501Z,7.77
2022-11-22T15:00:09.229Z,7.73
2022-11-22T15:03:27.167Z,7.71
2022-11-22T15:09:12.792Z,7.65
2022-11-22T15:09:55.542Z,7.67
2022-11-22T15:13:04.769Z,7.65
2022-11-22T15:57:36.336Z,7.39
2022-11-22T16:00:11.847Z,7.37
2022-11-22T16:02:49.680Z,7.39
2022-11-22T16:06:07.460Z,7.39
2022-11-22T16:08:16.740Z,7.36
2022-11-22T16:10:51.857Z,7.35
2022-11-22T16:13:30.289Z,7.34
2022-11-22T16:16:19.786Z,7.31
2022-11-22T16:18:50.685Z,7.29
2022-11-22T16:21:27.705Z,7.31
2022-11-22T16:24:18.724Z,7.27
2022-11-22T16:26:56.908Z,7.26
2022-11-22T16:29:32.367Z,7.32
2022-11-22T16:32:03.424Z,7.29
2022-11-22T16:34:31.959Z,7.28
2022-11-22T16:37:00.358Z,7.24
2022-11-22T16:39:29.051Z,7.24
2022-11-22T16:41:57.723Z,7.26
2022-11-22T16:44:27.569Z,7.27
2022-11-22T16:46:56.131Z,7.23
2022-11-22T16:49:24.490Z,7.22
2022-11-22T16:51:53.267Z,7.21
2022-11-22T16:54:23.829Z,7.14
2022-11-22T16:56:52.439Z,7.16
2022-11-22T16:59:20.830Z,7.17
2022-11-22T17:01:51.005Z,7.21
2022-11-22T17:04:23.882Z,7.18
2022-11-22T17:06:53.260Z,7.25
2022-11-22T17:09:21.844Z,7.19
2022-11-22T17:11:52.560Z,7.15
2022-11-22T17:14:21.244Z,7.19
2022-11-22T17:16:50.935Z,7.17
2022-11-22T17:19:45.615Z,7.21
2022-11-22T17:22:08.066Z,7.19
2022-11-22T17:24:36.930Z,7.15
2022-11-22T17:27:05.864Z,7.16
2022-11-22T17:29:49.878Z,7.13
2022-11-22T17:32:20.811Z,7.11
2022-11-22T17:34:49.535Z,7.14
2022-11-22T17:37:17.971Z,7.12
2022-11-22T17:39:46.774Z,7.17
2022-11-22T17:42:15.269Z,7.27
2022-11-22T17:44:43.619Z,7.23
2022-11-22T17:47:12.034Z,7.23
2022-11-22T17:49:41.731Z,7.26
2022-11-22T17:52:10.077Z,7.26
2022-11-22T17:54:38.801Z,7.19
2022-11-22T17:57:07.164Z,7.21
2022-11-22T17:59:35.676Z,7.15
2022-11-22T18:02:04.150Z,7.12
2022-11-22T18:04:32.684Z,7.14
2022-11-22T18:07:02.866Z,7.07
2022-11-22T18:09:31.593Z,7.03
2022-11-22T18:12:00.236Z,7.00
2022-11-22T18:14:30.673Z,7.01
2022-11-22T18:17:00.391Z,6.99
2022-11-22T18:19:29.062Z,6.94
2022-11-22T18:21:57.691Z,6.93
2022-11-22T18:24:27.619Z,6.99
2022-11-22T18:26:56.031Z,7.01
2022-11-22T18:29:41.541Z,6.99
2022-11-22T18:32:11.520Z,7.02
2022-11-22T18:34:41.590Z,6.95
2022-11-22T18:37:10.415Z,6.98
2022-11-22T18:39:40.577Z,6.94
2022-11-22T18:42:14.571Z,6.96
2022-11-22T18:44:43.541Z,6.92
2022-11-22T18:47:11.982Z,6.97
2022-11-22T18:49:40.339Z,6.90
2022-11-22T18:52:10.765Z,6.87
2022-11-22T18:54:43.384Z,6.86
2022-11-22T18:57:11.998Z,6.86
2022-11-22T18:59:40.787Z,6.89
2022-11-22T19:02:09.360Z,6.86
2022-11-22T19:04:37.795Z,6.84
2022-11-22T19:07:06.415Z,6.83
2022-11-22T19:09:34.921Z,6.85
2022-11-22T19:12:05.165Z,6.82
2022-11-22T19:14:33.846Z,6.87
2022-11-22T19:17:02.459Z,6.82
2022-11-22T19:19:32.391Z,6.85
2022-11-22T19:22:01.171Z,6.78
2022-11-22T19:24:30.374Z,6.74
2022-11-22T19:26:58.954Z,6.78
2022-11-22T19:29:28.842Z,6.78
2022-11-22T19:31:57.460Z,6.80
2022-11-22T19:34:26.273Z,6.74
2022-11-22T19:36:54.661Z,6.73
2022-11-22T19:39:23.010Z,6.69
2022-11-22T19:41:51.380Z,6.71
2022-11-22T19:44:19.895Z,6.72
2022-11-22T19:46:49.745Z,6.76
2022-11-22T19:49:18.211Z,6.70
2022-11-22T19:51:46.653Z,6.76
2022-11-22T19:54:15.166Z,6.72
2022-11-22T19:56:43.542Z,6.71
2022-11-22T19:59:15.888Z,6.73
2022-11-22T20:01:44.351Z,6.70
2022-11-22T20:04:16.660Z,6.65
2022-11-22T20:06:49.957Z,6.68
2022-11-22T20:09:18.989Z,6.68
2022-11-22T20:11:47.536Z,6.66
2022-11-22T20:14:15.943Z,6.68
2022-11-22T20:16:44.570Z,6.66
2022-11-22T20:19:15.349Z,6.65
2022-11-22T20:21:43.890Z,6.69
2022-11-22T20:24:13.802Z,6.66
2022-11-22T20:26:42.586Z,6.65
2022-11-22T20:29:15.144Z,6.67
2022-11-22T20:31:43.858Z,6.61
2022-11-22T20:34:15.125Z,6.62
2022-11-22T20:36:43.854Z,6.62
2022-11-22T20:39:12.669Z,6.61
2022-11-22T20:41:41.645Z,6.54
2022-11-22T20:44:13.915Z,6.50
2022-11-22T20:46:43.067Z,6.50
2022-11-22T20:49:13.252Z,6.52
2022-11-22T20:51:42.597Z,6.44
2022-11-22T20:54:11.996Z,6.39
2022-11-22T20:56:40.556Z,6.37
2022-11-22T20:59:09.160Z,6.36
2022-11-22T21:01:37.978Z,6.36
2022-11-22T21:04:06.791Z,6.34
2022-11-22T21:06:36.567Z,6.27
2022-11-22T21:09:05.365Z,6.24
2022-11-22T21:11:33.789Z,6.21
2022-11-22T21:14:02.231Z,6.12
2022-11-22T21:16:31.745Z,6.16
2022-11-22T21:19:02.209Z,6.23
2022-11-22T21:21:32.021Z,6.15
2022-11-22T21:24:05.548Z,6.15
2022-11-22T21:26:35.204Z,6.13
2022-11-22T21:29:05.148Z,6.14
2022-11-22T21:31:33.463Z,6.12
2022-11-22T21:34:01.770Z,6.07
2022-11-22T21:36:30.308Z,6.10
2022-11-22T21:38:58.704Z,6.07
2022-11-22T21:41:43.564Z,6.10
2022-11-22T21:44:12.280Z,6.04
2022-11-22T21:46:40.968Z,5.97
2022-11-22T21:49:09.617Z,5.96
2022-11-22T21:51:37.889Z,5.95
2022-11-22T21:54:06.867Z,5.85
2022-11-22T21:56:36.640Z,5.82
2022-11-22T21:59:05.554Z,5.78
2022-11-22T22:01:34.715Z,5.81
2022-11-22T22:04:03.848Z,5.75
2022-11-22T22:06:32.655Z,5.72
2022-11-22T22:09:01.654Z,5.75
2022-11-22T22:11:30.143Z,5.74
2022-11-22T22:13:59.939Z,5.70
2022-11-22T22:16:28.404Z,5.64
2022-11-22T22:18:57.087Z,5.62
2022-11-22T22:21:25.412Z,5.59
2022-11-22T22:23:53.887Z,5.58
2022-11-22T22:26:22.287Z,5.59
2022-11-22T22:28:50.713Z,5.58
2022-11-22T22:31:23.988Z,5.57
2022-11-22T22:33:55.321Z,5.50
2022-11-22T22:36:25.216Z,5.50
2022-11-22T22:38:54.327Z,5.57
2022-11-22T22:41:22.755Z,5.50
2022-11-22T22:43:51.346Z,5.50
2022-11-22T22:46:24.689Z,5.44
2022-11-22T22:48:54.830Z,5.44
2022-11-22T22:51:31.892Z,5.44
2022-11-22T22:54:02.017Z,5.36
2022-11-22T22:56:32.355Z,5.39
2022-11-22T22:59:01.589Z,5.34
2022-11-22T23:01:32.647Z,5.35
2022-11-22T23:04:03.207Z,5.26
2022-11-22T23:06:34.156Z,5.25
2022-11-22T23:09:03.789Z,5.20
2022-11-22T23:11:59.698Z,5.20
2022-11-22T23:14:29.411Z,5.11
2022-11-22T23:16:59.113Z,5.11
2022-11-22T23:19:28.374Z,5.10
2022-11-22T23:21:56.974Z,5.08
2022-11-22T23:24:25.456Z,5.06
2022-11-22T23:26:53.774Z,5.07
2022-11-22T23:29:22.108Z,5.05
2022-11-22T23:31:50.807Z,4.98
2022-11-22T23:34:20.633Z,4.94
2022-11-22T23:36:49.165Z,4.89
2022-11-22T23:39:17.510Z,4.90
2022-11-22T23:41:46.577Z,4.86
2022-11-22T23:44:14.908Z,4.94
2022-11-22T23:46:43.367Z,4.90
2022-11-22T23:49:13.022Z,4.81
2022-11-22T23:51:42.948Z,4.78
2022-11-22T23:54:11.850Z,4.78
2022-11-22T23:56:40.356Z,4.76
2022-11-22T23:59:09.805Z,4.78
